createdAt,value
2023-03-24T00:00:12.855Z,7.22
2023-03-24T00:02:43.838Z,9.82
2023-03-24T00:05:19.406Z,7.40
2023-03-24T00:07:47.154Z,8.60
2023-03-24T00:10:40.418Z,5.65
2023-03-24T00:13:08.803Z,6.85
2023-03-24T00:15:52.994Z,10.13
2023-03-24T00:18:42.146Z,8.02
2023-03-24T00:21:21.808Z,7.10
2023-03-24T00:24:16.454Z,5.03
2023-03-24T00:26:43.677Z,7.20
2023-03-24T00:29:19.619Z,8.85
2023-03-24T00:32:20.699Z,7.38
2023-03-24T00:35:01.146Z,6.07
2023-03-24T00:37:43.440Z,5.57
2023-03-24T00:40:17.762Z,5.70
2023-03-24T00:42:48.364Z,8.05
2023-03-24T00:45:23.599Z,4.78
2023-03-24T00:48:05.051Z,5.97
2023-03-24T00:50:36.096Z,5.88
2023-03-24T00:53:03.281Z,7.32
2023-03-24T00:55:40.717Z,5.38
2023-03-24T00:58:19.290Z,5.43
2023-03-24T01:00:51.921Z,6.78
2023-03-24T01:03:22.874Z,7.15
2023-03-24T01:06:11.523Z,5.95
2023-03-24T01:08:57.953Z,6.40
2023-03-24T01:14:21.450Z,4.90
2023-03-24T01:16:53.317Z,5.72
2023-03-24T01:19:22.712Z,7.03
2023-03-24T01:21:58.203Z,6.55
2023-03-24T01:27:20.641Z,7.93
2023-03-24T01:29:50.353Z,6.18
2023-03-24T01:32:22.840Z,4.97
2023-03-24T01:34:59.602Z,5.32
2023-03-24T01:37:29.371Z,7.47
2023-03-24T01:40:35.189Z,5.88
2023-03-24T01:43:31.572Z,9.35
2023-03-24T01:46:07.750Z,5.15
2023-03-24T01:49:02.366Z,5.18
2023-03-24T01:51:41.833Z,6.10
2023-03-24T01:54:22.076Z,7.35
2023-03-24T01:57:14.241Z,7.80
2023-03-24T01:59:57.580Z,4.70
2023-03-24T02:02:59.750Z,5.63
2023-03-24T02:06:29.263Z,5.28
2023-03-24T02:09:01.605Z,5.82
2023-03-24T02:11:43.216Z,5.40
2023-03-24T02:14:19.224Z,5.75
2023-03-24T02:17:12.782Z,5.90
2023-03-24T02:19:58.326Z,6.65
2023-03-24T02:23:21.813Z,7.47
2023-03-24T02:29:20.628Z,7.07
2023-03-24T02:32:35.655Z,5.10
2023-03-24T02:35:53.171Z,5.47
2023-03-24T02:38:42.573Z,5.30
2023-03-24T02:41:40.814Z,5.72
2023-03-24T02:44:33.174Z,5.07
2023-03-24T02:47:16.288Z,4.95
2023-03-24T02:50:01.227Z,3.88
2023-03-24T02:52:37.224Z,3.33
2023-03-24T02:55:14.495Z,5.15
2023-03-24T02:58:02.243Z,4.50
2023-03-24T03:04:33.164Z,5.25
2023-03-24T03:07:22.474Z,4.50
2023-03-24T03:10:10.966Z,6.82
2023-03-24T03:12:42.635Z,4.90
2023-03-24T03:15:32.238Z,4.10
2023-03-24T03:18:19.678Z,4.90
2023-03-24T03:20:55.050Z,5.88
2023-03-24T03:23:35.785Z,7.43
2023-03-24T03:26:21.753Z,5.57
2023-03-24T03:29:00.159Z,7.60
2023-03-24T03:32:05.657Z,4.75
2023-03-24T03:34:40.265Z,5.97
2023-03-24T03:37:22.314Z,4.53
2023-03-24T03:40:05.175Z,4.32
2023-03-24T03:42:41.446Z,5.78
2023-03-24T03:45:19.729Z,7.00
2023-03-24T03:47:48.047Z,8.05
2023-03-24T03:50:25.458Z,4.32
2023-03-24T03:53:23.883Z,4.97
2023-03-24T03:55:57.589Z,3.83
2023-03-24T03:58:43.778Z,3.72
2023-03-24T04:01:16.158Z,3.80
2023-03-24T04:04:21.665Z,3.20
2023-03-24T04:07:24.207Z,4.70
2023-03-24T04:10:23.058Z,2.40
2023-03-24T04:13:03.384Z,3.65
2023-03-24T04:16:00.103Z,4.75
2023-03-24T04:18:58.113Z,4.35
2023-03-24T04:21:51.810Z,2.50
2023-03-24T04:25:02.008Z,4.18
2023-03-24T04:27:46.535Z,3.65
2023-03-24T04:30:30.222Z,3.42
2023-03-24T04:33:04.008Z,3.40
2023-03-24T04:35:40.803Z,2.70
2023-03-24T04:38:23.442Z,2.08
2023-03-24T04:40:59.305Z,2.80
2023-03-24T04:43:41.714Z,3.97
2023-03-24T04:46:37.418Z,2.90
2023-03-24T04:49:21.399Z,4.07
2023-03-24T04:52:00.188Z,2.90
2023-03-24T04:54:40.010Z,5.05
2023-03-24T04:57:07.481Z,2.83
2023-03-24T04:59:43.515Z,3.30
2023-03-24T05:02:10.998Z,6.47
2023-03-24T05:04:56.255Z,3.03
2023-03-24T05:07:27.670Z,3.92
2023-03-24T05:09:58.622Z,4.07
2023-03-24T05:12:25.394Z,3.92
2023-03-24T05:15:24.606Z,4.53
2023-03-24T05:20:27.121Z,3.60
2023-03-24T05:22:57.789Z,5.10
2023-03-24T05:25:25.641Z,7.78
2023-03-24T05:27:55.409Z,11.50
2023-03-24T05:30:44.945Z,4.90
2023-03-24T05:33:41.320Z,5.50
2023-03-24T05:36:23.134Z,7.95
2023-03-24T05:38:55.368Z,3.80
2023-03-24T05:41:25.539Z,5.57
2023-03-24T05:43:52.579Z,6.20
2023-03-24T05:46:20.284Z,8.35
2023-03-24T05:48:49.192Z,9.65
2023-03-24T05:51:17.847Z,8.90
2023-03-24T05:53:48.965Z,4.07
2023-03-24T05:56:22.670Z,6.55
2023-03-24T05:59:18.775Z,5.85
2023-03-24T06:02:09.375Z,5.93
2023-03-24T06:04:59.071Z,6.57
2023-03-24T06:07:30.676Z,7.38
2023-03-24T06:10:02.892Z,5.20
2023-03-24T06:12:38.360Z,4.93
2023-03-24T06:15:09.010Z,10.55
2023-03-24T06:17:37.483Z,6.82
2023-03-24T06:20:15.746Z,6.95
2023-03-24T06:23:12.782Z,6.78
2023-03-24T06:25:51.953Z,7.40
2023-03-24T06:28:26.282Z,4.05
2023-03-24T06:33:32.649Z,4.82
2023-03-24T06:36:01.888Z,9.32
2023-03-24T06:38:30.440Z,7.78
2023-03-24T06:41:01.547Z,10.30
2023-03-24T06:43:28.908Z,4.68
2023-03-24T06:45:57.596Z,7.15
2023-03-24T06:48:26.375Z,7.90
2023-03-24T06:51:00.053Z,7.25
2023-03-24T06:53:27.029Z,4.57
2023-03-24T06:55:54.452Z,8.05
2023-03-24T06:58:25.169Z,6.35
2023-03-24T07:01:14.870Z,7.25
2023-03-24T07:03:57.242Z,11.93
2023-03-24T07:07:00.888Z,8.15
2023-03-24T07:09:31.032Z,7.40
2023-03-24T07:11:58.329Z,7.30
2023-03-24T07:14:26.473Z,9.07
2023-03-24T07:16:54.620Z,10.27
2023-03-24T07:19:36.757Z,8.13
2023-03-24T07:22:23.196Z,11.88
2023-03-24T07:25:22.477Z,7.55
2023-03-24T07:27:58.745Z,12.57
2023-03-24T07:30:37.392Z,11.18
2023-03-24T07:33:10.097Z,12.52
2023-03-24T07:35:38.230Z,12.80
2023-03-24T07:38:06.512Z,13.57
2023-03-24T07:40:35.493Z,19.23
2023-03-24T07:43:07.472Z,11.30
2023-03-24T07:45:54.418Z,15.93
2023-03-24T07:48:21.270Z,21.77
2023-03-24T07:50:48.202Z,14.23
2023-03-24T07:53:34.914Z,17.50
2023-03-24T07:56:02.318Z,13.00
2023-03-24T07:58:29.609Z,12.55
2023-03-24T08:01:09.806Z,8.90
2023-03-24T08:03:42.267Z,14.05
2023-03-24T08:06:17.410Z,20.02
2023-03-24T08:08:51.382Z,16.45
2023-03-24T08:11:18.244Z,10.70
2023-03-24T08:13:45.305Z,11.95
2023-03-24T08:16:12.404Z,12.15
2023-03-24T08:18:39.370Z,12.70
2023-03-24T08:21:06.558Z,17.00
2023-03-24T08:23:33.854Z,14.13
2023-03-24T08:26:01.580Z,13.85
2023-03-24T08:28:28.511Z,14.18
2023-03-24T08:30:58.494Z,17.65
2023-03-24T08:33:25.256Z,12.45
2023-03-24T08:35:57.540Z,15.93
2023-03-24T08:38:30.711Z,15.63
2023-03-24T08:41:02.121Z,17.05
2023-03-24T08:43:30.309Z,13.05
2023-03-24T08:46:01.543Z,11.32
2023-03-24T08:48:30.014Z,14.60
2023-03-24T08:50:57.924Z,16.80
2023-03-24T08:53:24.772Z,15.95
2023-03-24T08:55:52.419Z,14.75
2023-03-24T08:58:20.940Z,12.45
2023-03-24T09:00:48.762Z,12.70
2023-03-24T09:03:21.927Z,14.05
2023-03-24T09:05:49.572Z,9.27
2023-03-24T09:08:19.088Z,9.15
2023-03-24T09:10:49.663Z,9.70
2023-03-24T09:13:18.091Z,11.95
2023-03-24T09:15:53.488Z,8.25
2023-03-24T09:18:22.048Z,13.75
2023-03-24T09:20:49.411Z,9.18
2023-03-24T09:23:16.522Z,6.15
2023-03-24T09:25:43.723Z,7.40
2023-03-24T09:28:10.561Z,13.23
2023-03-24T09:30:37.431Z,10.93
2023-03-24T09:33:04.451Z,8.40
2023-03-24T09:35:31.483Z,11.90
2023-03-24T09:37:58.412Z,10.18
2023-03-24T09:40:34.981Z,7.53
2023-03-24T09:43:04.516Z,12.43
2023-03-24T09:45:36.123Z,12.45
2023-03-24T09:48:09.915Z,10.77
2023-03-24T09:50:48.602Z,14.65
2023-03-24T09:53:34.651Z,9.00
2023-03-24T09:56:11.542Z,15.60
2023-03-24T09:58:41.783Z,10.40
2023-03-24T10:01:14.675Z,11.32
2023-03-24T10:03:48.242Z,12.43
2023-03-24T10:06:26.277Z,7.70
2023-03-24T10:09:12.690Z,17.70
2023-03-24T10:11:58.769Z,9.18
2023-03-24T10:14:44.974Z,9.95
2023-03-24T10:17:30.520Z,8.77
2023-03-24T10:20:18.394Z,7.50
2023-03-24T10:23:05.942Z,9.75
2023-03-24T10:25:51.844Z,9.30
2023-03-24T10:28:26.615Z,6.43
2023-03-24T10:30:55.938Z,10.32
2023-03-24T10:33:23.200Z,7.32
2023-03-24T10:36:00.283Z,11.48
2023-03-24T10:38:27.650Z,15.57
2023-03-24T10:40:55.388Z,8.93
2023-03-24T10:43:26.330Z,10.80
2023-03-24T10:45:56.594Z,8.00
2023-03-24T10:48:43.223Z,10.98
2023-03-24T10:51:27.083Z,8.40
2023-03-24T10:54:13.438Z,9.63
2023-03-24T10:56:44.168Z,12.18
2023-03-24T10:59:27.351Z,11.52
2023-03-24T11:02:02.307Z,7.70
2023-03-24T11:04:31.278Z,8.65
2023-03-24T11:07:24.888Z,11.30
2023-03-24T11:09:59.913Z,12.68
2023-03-24T11:12:28.988Z,10.98
2023-03-24T11:15:17.552Z,9.50
2023-03-24T11:17:48.736Z,12.27
2023-03-24T11:20:36.285Z,5.38
2023-03-24T11:23:17.264Z,8.15
2023-03-24T11:25:48.173Z,14.13
2023-03-24T11:28:26.246Z,5.47
2023-03-24T11:30:55.053Z,8.23
2023-03-24T11:33:35.743Z,8.20
2023-03-24T11:36:13.453Z,7.07
2023-03-24T11:38:41.057Z,6.75
2023-03-24T11:41:20.027Z,13.63
2023-03-24T11:43:47.773Z,11.43
2023-03-24T11:46:20.605Z,9.20
2023-03-24T11:48:59.751Z,8.25
2023-03-24T11:51:38.107Z,8.15
2023-03-24T11:54:13.185Z,13.32
2023-03-24T11:56:43.262Z,8.88
2023-03-24T11:59:30.099Z,11.40
2023-03-24T12:02:00.752Z,8.38
2023-03-24T12:04:31.609Z,8.35
2023-03-24T12:06:58.765Z,8.85
2023-03-24T12:09:33.068Z,8.82
2023-03-24T12:12:00.263Z,9.32
2023-03-24T12:14:43.625Z,9.73
2023-03-24T12:17:32.965Z,9.52
2023-03-24T12:20:06.169Z,11.18
2023-03-24T12:22:40.160Z,10.38
2023-03-24T12:25:23.904Z,5.30
2023-03-24T12:27:57.270Z,5.22
2023-03-24T12:30:34.455Z,7.90
2023-03-24T12:33:29.049Z,7.28
2023-03-24T12:36:07.855Z,7.90
2023-03-24T12:38:41.106Z,6.20
2023-03-24T12:41:19.968Z,5.18
2023-03-24T12:44:05.263Z,7.70
2023-03-24T12:46:54.208Z,6.07
2023-03-24T12:49:21.728Z,6.32
2023-03-24T12:51:55.210Z,6.20
2023-03-24T12:54:47.559Z,9.77
2023-03-24T12:57:16.686Z,6.10
2023-03-24T12:59:47.261Z,8.55
2023-03-24T13:02:17.421Z,10.48
2023-03-24T13:04:47.051Z,6.28
2023-03-24T13:07:17.817Z,6.57
2023-03-24T13:09:54.052Z,8.23
2023-03-24T13:12:41.606Z,4.07
2023-03-24T13:15:15.075Z,8.95
2023-03-24T13:17:45.667Z,4.03
2023-03-24T13:20:14.432Z,5.75
2023-03-24T13:22:42.354Z,5.90
2023-03-24T13:25:23.602Z,4.65
2023-03-24T13:27:54.981Z,4.75
2023-03-24T13:30:31.320Z,5.57
2023-03-24T13:33:05.226Z,6.32
2023-03-24T13:35:40.815Z,6.88
2023-03-24T13:38:20.817Z,7.40
2023-03-24T13:40:50.839Z,5.38
2023-03-24T13:43:20.408Z,7.63
2023-03-24T13:45:50.744Z,7.43
2023-03-24T13:48:23.758Z,4.78
2023-03-24T13:50:56.092Z,9.15
2023-03-24T13:53:36.246Z,6.20
2023-03-24T13:56:05.717Z,5.15
2023-03-24T13:58:49.689Z,5.38
2023-03-24T14:01:32.631Z,6.07
2023-03-24T14:04:18.657Z,4.30
2023-03-24T14:07:01.532Z,8.45
2023-03-24T14:09:30.639Z,7.53
2023-03-24T14:11:58.250Z,11.13
2023-03-24T14:14:29.233Z,3.90
2023-03-24T14:16:56.550Z,9.30
2023-03-24T14:19:30.406Z,4.88
2023-03-24T14:22:00.515Z,6.82
2023-03-24T14:24:30.674Z,9.18
2023-03-24T14:26:59.095Z,4.15
2023-03-24T14:29:32.443Z,6.50
2023-03-24T14:32:17.287Z,6.82
2023-03-24T14:34:56.164Z,4.00
2023-03-24T14:37:24.566Z,5.50
2023-03-24T14:39:52.191Z,5.70
2023-03-24T14:42:34.709Z,3.53
2023-03-24T14:45:25.040Z,5.65
2023-03-24T14:47:58.546Z,9.45
2023-03-24T14:50:26.284Z,6.00
2023-03-24T14:52:59.323Z,6.28
2023-03-24T14:55:26.977Z,4.35
2023-03-24T14:57:54.152Z,10.88
2023-03-24T15:00:27.353Z,6.45
2023-03-24T15:03:01.924Z,7.47
2023-03-24T15:05:32.363Z,7.57
2023-03-24T15:08:01.081Z,4.35
2023-03-24T15:10:32.606Z,4.28
2023-03-24T15:13:00.110Z,6.35
2023-03-24T15:15:27.675Z,2.60
2023-03-24T15:17:57.438Z,4.40
2023-03-24T15:20:32.021Z,3.72
2023-03-24T15:23:16.284Z,3.00
2023-03-24T15:25:43.174Z,4.05
2023-03-24T15:28:26.592Z,2.78
2023-03-24T15:30:56.179Z,4.93
2023-03-24T15:33:23.524Z,8.13
2023-03-24T15:35:57.282Z,5.43
2023-03-24T15:38:33.522Z,5.43
2023-03-24T15:41:04.028Z,10.93
2023-03-24T15:43:31.127Z,7.30
2023-03-24T15:46:11.756Z,4.63
2023-03-24T15:48:40.058Z,5.68
2023-03-24T15:51:09.841Z,3.13
2023-03-24T15:53:44.553Z,6.82
2023-03-24T15:56:20.741Z,5.78
2023-03-24T15:58:48.884Z,6.55
2023-03-24T16:01:20.984Z,6.57
2023-03-24T16:03:48.758Z,8.40
2023-03-24T16:06:25.568Z,4.95
2023-03-24T16:08:52.739Z,7.03
2023-03-24T16:11:19.745Z,3.70
2023-03-24T16:13:46.557Z,8.07
2023-03-24T16:16:13.374Z,4.03
2023-03-24T16:18:48.855Z,5.13
2023-03-24T16:21:26.781Z,4.22
2023-03-24T16:23:55.334Z,4.75
2023-03-24T16:26:26.275Z,5.72
2023-03-24T16:28:54.341Z,5.38
2023-03-24T16:31:33.615Z,5.30
2023-03-24T16:34:00.886Z,4.97
2023-03-24T16:36:28.172Z,4.30
2023-03-24T16:39:00.447Z,1.88
2023-03-24T16:41:30.316Z,3.63
2023-03-24T16:43:57.238Z,3.00
2023-03-24T16:46:27.066Z,3.42
2023-03-24T16:48:54.366Z,1.98
2023-03-24T16:51:22.012Z,3.13
2023-03-24T16:53:49.042Z,1.95
2023-03-24T16:56:19.013Z,3.53
2023-03-24T16:58:49.095Z,1.98
2023-03-24T17:01:26.623Z,2.63
2023-03-24T17:03:54.901Z,3.70
2023-03-24T17:06:23.088Z,3.70
2023-03-24T17:08:50.224Z,4.60
2023-03-24T17:11:24.613Z,3.70
2023-03-24T17:13:51.898Z,4.53
2023-03-24T17:16:18.747Z,6.47
2023-03-24T17:18:45.880Z,2.78
2023-03-24T17:21:19.937Z,4.28
2023-03-24T17:23:49.364Z,4.10
2023-03-24T17:26:17.164Z,5.28
2023-03-24T17:28:46.783Z,4.15
2023-03-24T17:31:14.012Z,5.68
2023-03-24T17:33:40.784Z,4.75
2023-03-24T17:36:08.236Z,4.53
2023-03-24T17:38:36.641Z,7.15
2023-03-24T17:41:04.810Z,2.80
2023-03-24T17:43:32.737Z,2.97
2023-03-24T17:46:01.326Z,6.90
2023-03-24T17:48:28.874Z,6.40
2023-03-24T17:50:56.841Z,8.77
2023-03-24T17:53:27.955Z,7.30
2023-03-24T17:55:57.643Z,5.55
2023-03-24T17:58:30.657Z,2.63
2023-03-24T18:00:58.531Z,8.55
2023-03-24T18:03:37.737Z,5.50
2023-03-24T18:06:09.026Z,5.53
2023-03-24T18:08:36.990Z,4.93
2023-03-24T18:11:09.554Z,5.82
2023-03-24T18:16:17.393Z,5.68
2023-03-24T18:18:47.804Z,3.92
2023-03-24T18:21:14.591Z,4.55
2023-03-24T18:23:41.444Z,3.50
2023-03-24T18:26:08.931Z,5.10
2023-03-24T18:28:37.541Z,3.50
2023-03-24T18:31:12.659Z,5.60
2023-03-24T18:33:42.668Z,4.95
2023-03-24T18:36:10.444Z,7.07
2023-03-24T18:38:37.347Z,7.22
2023-03-24T18:41:06.501Z,5.93
2023-03-24T18:43:40.976Z,5.32
2023-03-24T18:46:10.989Z,3.88
2023-03-24T18:48:38.632Z,5.82
2023-03-24T18:51:05.986Z,5.22
2023-03-24T18:53:35.825Z,6.95
2023-03-24T18:56:04.361Z,7.10
2023-03-24T18:58:31.315Z,4.38
2023-03-24T19:00:59.084Z,7.35
2023-03-24T19:03:27.350Z,9.63
2023-03-24T19:05:54.373Z,10.77
2023-03-24T19:08:21.906Z,6.30
2023-03-24T19:10:50.167Z,4.82
2023-03-24T19:13:17.331Z,4.93
2023-03-24T19:15:48.471Z,5.70
2023-03-24T19:18:15.711Z,4.80
2023-03-24T19:20:42.716Z,4.45
2023-03-24T19:23:09.612Z,5.80
2023-03-24T19:25:36.476Z,5.35
2023-03-24T19:28:03.352Z,6.22
2023-03-24T19:30:30.154Z,2.63
2023-03-24T19:32:57.094Z,3.97
2023-03-24T19:35:24.200Z,4.75
2023-03-24T19:37:51.065Z,6.90
2023-03-24T19:40:17.880Z,5.28
2023-03-24T19:42:45.130Z,5.05
2023-03-24T19:45:15.358Z,6.25
2023-03-24T19:47:46.191Z,5.53
2023-03-24T19:50:16.485Z,5.00
2023-03-24T19:52:45.938Z,8.75
2023-03-24T19:55:13.565Z,5.45
2023-03-24T19:57:40.871Z,5.22
2023-03-24T20:00:10.211Z,3.92
2023-03-24T20:02:37.709Z,5.00
2023-03-24T20:05:06.829Z,4.85
2023-03-24T20:07:34.481Z,5.10
2023-03-24T20:10:01.211Z,7.53
2023-03-24T20:12:27.972Z,5.55
2023-03-24T20:14:55.518Z,9.65
2023-03-24T20:17:29.490Z,8.13
2023-03-24T20:19:56.717Z,4.57
2023-03-24T20:22:23.574Z,6.32
2023-03-24T20:24:50.702Z,7.28
2023-03-24T20:27:17.581Z,5.82
2023-03-24T20:29:45.869Z,8.80
2023-03-24T20:32:13.013Z,3.88
2023-03-24T20:34:39.885Z,7.70
2023-03-24T20:37:07.043Z,4.88
2023-03-24T20:39:34.888Z,7.63
2023-03-24T20:42:02.480Z,4.93
2023-03-24T20:44:29.356Z,10.85
2023-03-24T20:46:57.190Z,10.95
2023-03-24T20:49:25.722Z,4.10
2023-03-24T20:51:53.223Z,7.60
2023-03-24T20:54:21.145Z,8.85
2023-03-24T20:56:55.225Z,10.07
2023-03-24T20:59:22.319Z,6.38
2023-03-24T21:01:49.033Z,6.32
2023-03-24T21:04:18.300Z,5.57
2023-03-24T21:06:45.662Z,4.28
2023-03-24T21:09:13.248Z,4.45
2023-03-24T21:11:40.157Z,9.07
2023-03-24T21:14:06.895Z,4.72
2023-03-24T21:16:33.961Z,5.85
2023-03-24T21:19:04.409Z,4.70
2023-03-24T21:21:32.199Z,6.93
2023-03-24T21:24:00.310Z,5.15
2023-03-24T21:26:27.306Z,3.42
2023-03-24T21:28:54.043Z,3.65
2023-03-24T21:31:24.060Z,7.00
2023-03-24T21:33:51.574Z,4.40
2023-03-24T21:36:19.687Z,6.70
2023-03-24T21:38:49.550Z,6.03
2023-03-24T21:41:17.680Z,4.93
2023-03-24T21:43:51.241Z,4.65
2023-03-24T21:46:22.155Z,8.40
2023-03-24T21:48:51.567Z,3.97
2023-03-24T21:51:20.302Z,4.47
2023-03-24T21:53:47.877Z,6.82
2023-03-24T21:56:15.586Z,9.60
2023-03-24T21:58:42.598Z,3.53
2023-03-24T22:01:09.728Z,4.50
2023-03-24T22:03:37.377Z,8.48
2023-03-24T22:06:10.517Z,4.43
2023-03-24T22:08:38.991Z,4.78
2023-03-24T22:11:06.560Z,5.53
2023-03-24T22:13:34.540Z,5.47
2023-03-24T22:16:03.915Z,6.60
2023-03-24T22:18:33.565Z,10.48
2023-03-24T22:21:03.732Z,6.47
2023-03-24T22:23:36.946Z,7.45
2023-03-24T22:26:07.290Z,8.75
2023-03-24T22:28:35.147Z,7.13
2023-03-24T22:31:08.465Z,7.22
2023-03-24T22:33:35.775Z,7.28
2023-03-24T22:36:03.317Z,7.35
2023-03-24T22:38:31.272Z,3.88
2023-03-24T22:41:07.108Z,4.18
2023-03-24T22:43:35.385Z,7.13
2023-03-24T22:46:10.024Z,9.25
2023-03-24T22:48:43.431Z,4.93
2023-03-24T22:51:19.293Z,2.70
2023-03-24T22:53:47.561Z,5.03
2023-03-24T22:56:17.803Z,4.28
2023-03-24T22:58:46.539Z,4.72
2023-03-24T23:01:13.856Z,9.52
2023-03-24T23:03:41.200Z,6.32
2023-03-24T23:06:09.681Z,7.28
2023-03-24T23:08:37.470Z,4.80
2023-03-24T23:11:07.131Z,3.42
2023-03-24T23:13:35.975Z,3.70
2023-03-24T23:16:03.854Z,3.88
2023-03-24T23:18:35.655Z,4.40
2023-03-24T23:21:07.339Z,6.03
2023-03-24T23:23:35.516Z,8.93
2023-03-24T23:26:05.557Z,8.13
2023-03-24T23:28:34.980Z,10.23
2023-03-24T23:31:01.901Z,3.25
2023-03-24T23:33:29.050Z,6.65
2023-03-24T23:35:58.000Z,3.88
2023-03-24T23:38:24.870Z,6.15
2023-03-24T23:40:51.765Z,7.00
2023-03-24T23:43:18.721Z,8.25
2023-03-24T23:45:46.630Z,3.03
2023-03-24T23:48:13.450Z,2.55
2023-03-24T23:50:40.269Z,6.60
2023-03-24T23:53:07.174Z,4.88
2023-03-24T23:55:33.938Z,8.48
2023-03-24T23:58:00.993Z,6.88
